Time;durP1;ratioP1;P1;durP2;ratioP2;P2;SDS_P1;SDS_P2;PMS_P1;PMS_P2;Temp;Humidity;BMP_temperature;BMP_pressure;BME280_temperature;BME280_humidity;BME280_pressure;Samples;Min_cycle;Max_cycle;Signal;HPM_P1;HPM_P2
2023/10/01 00:00:15;;;;;;;14.55;6.82;;;;;;;16.86;61.79;99036.09;5024187;28;20060;-47
2023/10/01 00:02:41;;;;;;;12.35;7.50;;;;;;;16.83;61.89;99023.19;4979676;28;20045;-45
2023/10/01 00:05:09;;;;;;;14.82;7.55;;;;;;;16.81;61.86;99024.22;5005665;28;20049;-49
2023/10/01 00:07:39;;;;;;;14.85;7.75;;;;;;;16.79;62.08;99016.47;5024680;28;20073;-45
2023/10/01 00:10:10;;;;;;;11.15;6.50;;;;;;;16.75;61.99;99020.25;5007891;28;20085;-47
2023/10/01 00:12:46;;;;;;;14.32;7.03;;;;;;;16.74;62.25;99023.00;5004673;28;20042;-47
2023/10/01 00:15:17;;;;;;;15.20;7.50;;;;;;;16.66;62.22;99005.16;5019083;28;20080;-46
2023/10/01 00:17:44;;;;;;;14.88;6.97;;;;;;;16.70;62.20;99018.88;5008011;28;20041;-46
2023/10/01 00:20:22;;;;;;;11.52;6.90;;;;;;;16.66;62.56;99012.19;5007260;28;20151;-48
2023/10/01 00:22:50;;;;;;;;;;;;;;;16.63;62.46;99017.66;5024596;28;20030;-48
2023/10/01 00:25:17;;;;;;;12.93;6.38;;;;;;;16.59;62.56;99003.88;4991467;28;19924;-49
2023/10/01 00:27:45;;;;;;;12.65;7.10;;;;;;;16.57;62.98;99005.75;5008050;28;20513;-48
2023/10/01 00:30:12;;;;;;;9.85;6.55;;;;;;;16.57;63.02;98999.66;4994326;28;20042;-49
2023/10/01 00:32:39;;;;;;;11.05;6.00;;;;;;;16.55;62.76;99007.66;4972455;28;20047;-46
2023/10/01 00:35:07;;;;;;;12.18;7.13;;;;;;;16.53;63.09;98992.03;5002171;28;20042;-47
2023/10/01 00:37:34;;;;;;;9.73;5.70;;;;;;;16.52;62.71;99005.25;4988547;28;20196;-47
2023/10/01 00:40:00;;;;;;;12.05;7.35;;;;;;;16.53;62.59;98994.66;5006017;28;20049;-45
2023/10/01 00:42:28;;;;;;;11.60;6.20;;;;;;;16.52;62.61;98997.38;5022468;28;20132;-50
2023/10/01 00:44:57;;;;;;;13.15;6.97;;;;;;;16.51;62.70;98998.31;5013599;28;20038;-46
2023/10/01 00:47:25;;;;;;;13.48;7.18;;;;;;;16.49;62.79;99000.19;5026861;28;20050;-45
2023/10/01 00:49:52;;;;;;;14.85;7.10;;;;;;;16.28;62.83;98973.66;5011301;28;20045;-45
2023/10/01 00:52:19;;;;;;;10.15;5.85;;;;;;;16.39;62.93;98996.53;5007508;28;20037;-43
2023/10/01 00:54:50;;;;;;;11.77;6.00;;;;;;;16.20;63.38;98975.97;4987391;28;20096;-43
2023/10/01 00:57:16;;;;;;;11.35;7.05;;;;;;;16.35;63.25;99006.41;4987598;28;20042;-46
2023/10/01 00:59:44;;;;;;;13.23;7.25;;;;;;;16.34;63.60;99006.50;5009402;28;20046;-46
2023/10/01 01:02:10;;;;;;;11.95;7.03;;;;;;;16.13;63.56;98956.34;5007383;28;20044;-48
2023/10/01 01:04:42;;;;;;;13.65;6.80;;;;;;;16.31;63.76;98998.84;5006551;28;20045;-44
2023/10/01 01:07:20;;;;;;;13.20;7.00;;;;;;;16.09;63.86;98962.75;5007556;28;20037;-44
2023/10/01 01:09:47;;;;;;;11.35;6.95;;;;;;;16.23;63.84;98994.13;5008545;28;20037;-45
2023/10/01 01:12:13;;;;;;;11.13;7.30;;;;;;;16.21;63.90;98989.94;5007263;28;20042;-46
2023/10/01 01:14:44;;;;;;;12.70;7.07;;;;;;;16.17;63.88;98989.31;5023103;28;20058;-45
2023/10/01 01:17:11;;;;;;;10.32;6.80;;;;;;;15.92;64.30;98949.94;5023694;28;20053;-49
2023/10/01 01:19:37;;;;;;;11.48;7.05;;;;;;;16.15;64.41;98995.59;5007272;28;20042;-49
2023/10/01 01:22:04;;;;;;;12.32;7.00;;;;;;;16.11;64.25;98989.72;5023503;28;20038;-46
2023/10/01 01:24:31;;;;;;;11.85;6.80;;;;;;;16.09;64.68;98986.34;5006572;28;20057;-46
2023/10/01 01:27:05;;;;;;;12.05;6.72;;;;;;;15.85;64.67;98962.66;5008450;28;20052;-45
2023/10/01 01:29:40;;;;;;;13.60;7.05;;;;;;;16.01;65.01;98979.03;5006812;28;20124;-47
2023/10/01 01:32:13;;;;;;;10.95;6.50;;;;;;;15.97;65.22;98988.03;4987321;28;20041;-49
2023/10/01 01:34:46;;;;;;;10.65;6.25;;;;;;;15.93;65.27;98994.41;4989977;28;20121;-47
2023/10/01 01:37:46;;;;;;;11.85;6.55;;;;;;;15.90;65.61;98983.31;5007216;28;20041;-47
2023/10/01 01:40:26;;;;;;;12.25;6.40;;;;;;;15.87;65.34;98971.22;5008816;28;20042;-46
2023/10/01 01:42:56;;;;;;;11.55;6.03;;;;;;;15.66;65.90;98952.53;5023937;28;20120;-47
2023/10/01 01:45:27;;;;;;;10.55;5.50;;;;;;;15.80;65.79;98969.13;5012696;28;20136;-46
2023/10/01 01:47:54;;;;;;;13.88;6.50;;;;;;;15.68;66.18;98960.31;4991165;28;20125;-44
2023/10/01 01:50:26;;;;;;;17.52;7.10;;;;;;;15.57;65.96;98942.69;5027530;28;20133;-50
2023/10/01 01:52:56;;;;;;;13.48;6.95;;;;;;;15.71;66.02;98964.50;5027866;28;20052;-45
2023/10/01 01:55:25;;;;;;;11.18;5.78;;;;;;;15.68;66.45;98978.66;5021400;28;20045;-46
2023/10/01 01:58:11;;;;;;;12.02;7.10;;;;;;;15.53;66.10;98943.84;4990862;28;20046;-43
2023/10/01 02:00:38;;;;;;;11.38;6.55;;;;;;;15.63;66.26;98955.38;5021959;28;20038;-47
2023/10/01 02:03:12;;;;;;;13.07;6.95;;;;;;;15.63;66.34;98959.78;5023291;28;20131;-49
2023/10/01 02:05:41;;;;;;;14.57;7.60;;;;;;;15.58;66.53;98959.25;5007596;28;20038;-45
2023/10/01 02:08:10;;;;;;;11.43;6.60;;;;;;;15.56;66.68;98954.09;5007967;28;20084;-45
2023/10/01 02:10:45;;;;;;;14.48;7.32;;;;;;;15.54;66.78;98958.63;5006634;28;20519;-48
2023/10/01 02:13:13;;;;;;;11.68;6.72;;;;;;;15.36;66.55;98919.66;5023919;28;20042;-45
2023/10/01 02:15:40;;;;;;;12.55;6.18;;;;;;;15.52;66.56;98941.31;4987154;28;20054;-47
2023/10/01 02:18:09;;;;;;;10.35;6.63;;;;;;;15.37;66.77;98922.19;4991655;28;20253;-46
2023/10/01 02:20:40;;;;;;;12.75;6.45;;;;;;;15.50;66.80;98943.97;4990458;28;20486;-45
2023/10/01 02:23:32;;;;;;;13.32;7.05;;;;;;;15.48;66.76;98947.66;4963529;28;20426;-46
2023/10/01 02:26:00;;;;;;;11.98;6.68;;;;;;;15.32;66.70;98916.41;4977326;28;20038;-45
2023/10/01 02:28:32;;;;;;;10.68;7.40;;;;;;;15.31;66.81;98904.25;4989665;28;20145;-45
2023/10/01 02:31:03;;;;;;;12.45;6.68;;;;;;;15.45;66.81;98935.59;4997740;28;20046;-49
2023/10/01 02:36:18;;;;;;;12.38;7.15;;;;;;;15.09;66.98;98878.63;5010660;28;20132;-47
2023/10/01 02:38:45;;;;;;;12.75;7.45;;;;;;;15.41;66.77;98930.66;4993392;28;20037;-46
2023/10/01 02:41:15;;;;;;;10.48;6.47;;;;;;;15.40;66.99;98936.84;4993243;28;20539;-46
2023/10/01 02:43:45;;;;;;;;;;;;;;;15.41;66.96;98931.50;4993628;28;20417;-45
2023/10/01 02:46:12;;;;;;;13.68;6.68;;;;;;;15.39;66.85;98930.75;4969269;28;19917;-48
2023/10/01 02:48:42;;;;;;;12.43;7.32;;;;;;;15.40;66.82;98934.22;4982188;28;20159;-47
2023/10/01 02:51:14;;;;;;;12.07;6.78;;;;;;;15.43;66.95;98931.41;5030340;28;20917;-44
2023/10/01 02:54:26;;;;;;;11.48;6.10;;;;;;;15.44;66.71;98931.28;5028973;28;20152;-45
2023/10/01 02:56:52;;;;;;;10.43;6.85;;;;;;;15.44;66.86;98938.34;4995205;28;20124;-44
2023/10/01 02:59:20;;;;;;;11.07;6.65;;;;;;;15.44;66.95;98930.47;5025679;28;20104;-50
2023/10/01 03:01:46;;;;;;;15.48;6.55;;;;;;;15.30;66.71;98912.19;4991745;28;20562;-47
2023/10/01 03:04:16;;;;;;;10.88;6.97;;;;;;;15.25;66.89;98910.72;5025728;28;20514;-49
2023/10/01 03:06:55;;;;;;;9.90;6.25;;;;;;;15.39;67.10;98929.91;5009683;28;20690;-46
2023/10/01 03:09:31;;;;;;;10.05;6.30;;;;;;;15.38;67.01;98925.63;5024394;28;20775;-45
2023/10/01 03:15:16;;;;;;;12.90;7.05;;;;;;;15.06;67.16;98873.59;5009089;28;20136;-47
2023/10/01 03:28:33;;;;;;;10.98;5.88;;;;;;;15.21;67.55;98909.25;4990485;28;20422;-47
2023/10/01 03:31:09;;;;;;;15.23;6.70;;;;;;;15.20;67.57;98907.56;5005181;28;20058;-46
2023/10/01 03:33:39;;;;;;;15.60;6.70;;;;;;;15.19;67.48;98890.16;5024653;28;20100;-43
2023/10/01 03:36:13;;;;;;;11.10;6.82;;;;;;;15.19;67.78;98895.41;5009946;28;20061;-44
2023/10/01 03:38:44;;;;;;;11.70;6.55;;;;;;;15.05;67.37;98871.91;4988644;28;20461;-47
2023/10/01 03:41:23;;;;;;;10.48;6.63;;;;;;;15.06;67.46;98870.16;4989002;28;20137;-50
2023/10/01 03:43:54;;;;;;;12.85;6.70;;;;;;;15.27;67.31;98901.00;5023841;28;20049;-46
2023/10/01 03:46:26;;;;;;;10.70;7.10;;;;;;;15.30;67.22;98902.56;5023988;28;20676;-44
2023/10/01 03:51:58;;;;;;;11.32;6.90;;;;;;;15.32;67.35;98905.09;5027226;28;20088;-47
2023/10/01 03:55:25;;;;;;;12.48;6.85;;;;;;;15.35;67.42;98912.72;4989993;28;20050;-45
2023/10/01 03:57:17;;;;;;;11.73;6.90;;;;;;;15.42;66.95;98906.16;4978487;28;20057;-45
2023/10/01 03:59:54;;;;;;;11.65;7.40;;;;;;;15.27;67.05;98877.44;4989952;28;20641;-48
2023/10/01 04:02:56;;;;;;;12.98;7.45;;;;;;;15.44;66.80;98902.47;4995135;28;20034;-45
2023/10/01 04:08:07;;;;;;;11.10;6.65;;;;;;;15.43;66.86;98913.91;5009301;28;20034;-45
2023/10/01 04:10:34;;;;;;;12.90;6.70;;;;;;;15.45;66.79;98906.78;5024432;28;20458;-44
2023/10/01 04:13:13;;;;;;;16.17;6.38;;;;;;;15.47;66.59;98906.69;4996143;28;20046;-45
2023/10/01 04:15:47;;;;;;;12.77;7.03;;;;;;;15.46;66.64;98905.00;4989377;28;20157;-44
2023/10/01 04:20:48;;;;;;;15.88;7.13;;;;;;;15.45;66.79;98896.31;4989558;28;20049;-45
2023/10/01 04:23:29;;;;;;;13.70;7.38;;;;;;;15.49;66.92;98905.63;5014079;28;20045;-47
2023/10/01 04:26:06;;;;;;;10.75;7.25;;;;;;;15.49;66.59;98896.94;5009070;28;20588;-46
2023/10/01 04:28:36;;;;;;;10.93;7.00;;;;;;;15.40;66.42;98871.34;5007687;28;20433;-45
2023/10/01 04:31:09;;;;;;;11.05;7.15;;;;;;;15.62;66.32;98903.91;5008937;28;20140;-45
2023/10/01 04:33:36;;;;;;;14.07;7.30;;;;;;;15.65;66.01;98908.09;5006770;28;20052;-46
2023/10/01 04:36:04;;;;;;;15.02;6.60;;;;;;;15.64;66.53;98909.06;4987746;28;20053;-46
2023/10/01 04:38:32;;;;;;;13.63;6.80;;;;;;;15.69;66.43;98901.72;4989296;28;20041;-47
2023/10/01 04:40:59;;;;;;;11.50;6.68;;;;;;;15.80;66.11;98904.47;4989277;28;20117;-45
2023/10/01 04:43:34;;;;;;;15.52;7.07;;;;;;;15.87;65.58;98916.19;4999857;28;20038;-46
2023/10/01 04:46:01;;;;;;;11.63;6.63;;;;;;;15.94;65.41;98904.34;5022166;28;20162;-44
2023/10/01 04:48:28;;;;;;;11.77;5.95;;;;;;;15.92;65.57;98900.13;5033443;28;20042;-47
2023/10/01 04:50:54;;;;;;;12.18;6.93;;;;;;;15.93;65.03;98902.66;5007602;28;20061;-46
2023/10/01 04:53:22;;;;;;;10.25;6.97;;;;;;;15.63;65.21;98866.28;4990728;28;20069;-44
2023/10/01 04:56:01;;;;;;;10.85;6.38;;;;;;;15.80;65.64;98901.00;5008672;28;20073;-45
2023/10/01 04:58:29;;;;;;;9.85;5.90;;;;;;;15.77;65.84;98904.66;5008653;28;20504;-45
2023/10/01 05:00:55;;;;;;;13.18;7.35;;;;;;;15.63;65.85;98883.78;4990493;28;20038;-45
2023/10/01 05:03:38;;;;;;;16.95;7.10;;;;;;;15.87;65.65;98905.69;4984352;28;20070;-46
2023/10/01 05:06:09;;;;;;;12.60;6.35;;;;;;;15.92;65.52;98908.00;4987523;28;20046;-44
2023/10/01 05:08:38;;;;;;;13.20;6.43;;;;;;;15.85;65.42;98910.22;5003823;28;20045;-44
2023/10/01 05:11:10;;;;;;;13.75;6.70;;;;;;;15.87;65.46;98910.94;4991829;28;20038;-48
2023/10/01 05:13:37;;;;;;;12.52;6.93;;;;;;;15.75;65.53;98896.06;5007133;28;20038;-45
2023/10/01 05:16:06;;;;;;;13.75;7.18;;;;;;;15.56;66.23;98878.13;5023574;28;20066;-45
2023/10/01 05:18:33;;;;;;;19.42;7.15;;;;;;;15.72;66.44;98911.16;5006606;28;20517;-46
2023/10/01 05:21:03;;;;;;;20.48;7.15;;;;;;;15.72;67.03;98914.59;4989435;28;20046;-45
2023/10/01 05:23:30;;;;;;;10.18;6.35;;;;;;;15.44;67.82;98872.84;4987561;28;20065;-47
2023/10/01 05:25:56;;;;;;;12.32;6.95;;;;;;;15.58;68.25;98919.94;4955386;28;20046;-45
2023/10/01 05:28:34;;;;;;;10.80;7.30;;;;;;;15.56;68.93;98906.09;4990971;28;20045;-49
2023/10/01 05:31:05;;;;;;;15.13;6.45;;;;;;;15.58;69.19;98897.19;5008240;28;20045;-45
2023/10/01 05:33:35;;;;;;;12.25;6.93;;;;;;;15.47;70.21;98898.81;5006284;28;20556;-48
2023/10/01 05:36:05;;;;;;;15.98;7.97;;;;;;;15.41;70.79;98910.53;5003383;28;20042;-46
2023/10/01 05:38:34;;;;;;;18.50;7.82;;;;;;;15.33;72.05;98910.22;4955642;28;20090;-44
2023/10/01 05:41:04;;;;;;;8.07;5.75;;;;;;;15.27;72.80;98893.13;5003602;28;20042;-49
2023/10/01 05:43:43;;;;;;;13.75;7.78;;;;;;;14.93;73.51;98853.53;5003585;28;20042;-45
2023/10/01 05:46:13;;;;;;;13.75;8.30;;;;;;;14.89;74.50;98867.78;4988418;28;20073;-46
2023/10/01 05:48:39;;;;;;;14.25;8.18;;;;;;;15.05;74.76;98905.09;5008271;28;20053;-44
2023/10/01 05:51:14;;;;;;;11.65;7.75;;;;;;;15.08;75.11;98907.50;5010747;28;20148;-48
2023/10/01 05:53:41;;;;;;;16.15;8.05;;;;;;;15.02;75.37;98911.38;5010474;28;20053;-48
2023/10/01 05:56:10;;;;;;;11.23;8.02;;;;;;;15.00;76.02;98910.66;5011261;28;20037;-45
2023/10/01 05:58:36;;;;;;;20.05;8.65;;;;;;;14.91;78.00;98920.88;5011783;28;20072;-46
2023/10/01 06:01:05;;;;;;;13.57;8.43;;;;;;;14.69;79.79;98908.31;5010424;28;20520;-50
2023/10/01 06:03:40;;;;;;;;;;;;;;;14.56;81.22;98913.47;5010784;28;20454;-45
2023/10/01 06:06:08;;;;;;;17.40;8.43;;;;;;;14.44;82.95;98910.78;5010490;28;19917;-46
2023/10/01 06:08:58;;;;;;;13.85;9.18;;;;;;;14.38;84.25;98917.25;5010112;28;20045;-45
2023/10/01 06:14:43;;;;;;;16.15;8.98;;;;;;;14.34;86.21;98923.56;4981710;28;20057;-45
2023/10/01 06:17:10;;;;;;;13.20;9.20;;;;;;;14.28;86.93;98922.19;4988822;28;20054;-45
2023/10/01 06:19:40;;;;;;;16.95;9.65;;;;;;;14.17;87.73;98923.75;5006356;28;20046;-43
2023/10/01 06:22:13;;;;;;;14.40;7.50;;;;;;;14.08;89.04;98924.31;5009986;28;20034;-44
2023/10/01 06:24:43;;;;;;;16.65;8.75;;;;;;;13.82;89.79;98903.19;5009603;28;20046;-47
2023/10/01 06:27:12;;;;;;;16.65;9.43;;;;;;;13.76;91.31;98926.25;4993589;28;20050;-44
2023/10/01 06:29:51;;;;;;;17.08;8.43;;;;;;;13.58;93.36;98931.63;4994142;28;20052;-45
2023/10/01 06:32:22;;;;;;;16.08;10.38;;;;;;;13.60;95.16;98954.19;4993430;28;20080;-45
2023/10/01 06:34:49;;;;;;;17.77;10.88;;;;;;;13.44;97.89;98964.69;5025236;28;20046;-45
2023/10/01 06:37:15;;;;;;;19.80;10.60;;;;;;;13.36;99.46;98956.44;5009372;28;20057;-45
2023/10/01 06:39:43;;;;;;;18.77;10.68;;;;;;;13.16;100.00;98928.88;5010530;28;20091;-46
2023/10/01 06:42:18;;;;;;;14.90;7.22;;;;;;;13.11;100.00;98929.13;5010435;28;20037;-44
2023/10/01 06:44:58;;;;;;;21.45;11.88;;;;;;;13.26;100.00;98952.66;5013208;28;20609;-45
2023/10/01 06:47:28;;;;;;;20.48;11.27;;;;;;;13.30;100.00;98965.47;5008282;28;20640;-46
2023/10/01 06:52:34;;;;;;;17.38;11.00;;;;;;;13.23;100.00;98964.16;5007699;28;19922;-49
2023/10/01 06:55:02;;;;;;;16.98;10.18;;;;;;;13.32;100.00;98970.59;5005591;28;20041;-45
2023/10/01 06:57:33;;;;;;;14.85;10.05;;;;;;;13.24;100.00;98957.97;5019351;28;20053;-47
2023/10/01 07:00:00;;;;;;;19.15;10.50;;;;;;;13.33;100.00;98969.69;5001614;28;20064;-50
2023/10/01 07:02:28;;;;;;;18.15;10.43;;;;;;;13.33;100.00;98972.28;5007317;28;20067;-47
2023/10/01 07:04:58;;;;;;;15.30;8.93;;;;;;;13.28;100.00;98956.91;5016199;28;20034;-43
2023/10/01 07:07:25;;;;;;;13.32;7.95;;;;;;;13.41;100.00;98978.75;4984981;28;20042;-45
2023/10/01 07:09:56;;;;;;;15.73;9.43;;;;;;;13.26;100.00;98942.22;4999721;28;20119;-46
2023/10/01 07:12:23;;;;;;;15.35;10.38;;;;;;;13.58;100.00;98978.63;4975530;28;20088;-47
2023/10/01 07:14:51;;;;;;;10.68;7.07;;;;;;;13.52;100.00;98981.59;5010211;28;20521;-45
2023/10/01 07:17:23;;;;;;;13.77;8.15;;;;;;;13.52;100.00;98984.19;4979032;28;20081;-46
2023/10/01 07:19:59;;;;;;;14.77;8.38;;;;;;;13.62;100.00;98981.06;5007039;28;20041;-45
2023/10/01 07:22:31;;;;;;;14.27;9.05;;;;;;;13.65;100.00;98967.84;5007433;28;20073;-44
2023/10/01 07:25:02;;;;;;;10.85;7.10;;;;;;;13.88;100.00;98972.53;4984639;28;20539;-48
2023/10/01 07:27:31;;;;;;;10.00;6.18;;;;;;;13.87;100.00;98983.94;5009473;28;20057;-45
2023/10/01 07:29:58;;;;;;;11.32;7.25;;;;;;;13.59;100.00;98935.06;5024755;28;20041;-45
2023/10/01 07:32:25;;;;;;;10.90;6.18;;;;;;;14.07;100.00;98996.66;5022776;28;20052;-45
2023/10/01 07:34:58;;;;;;;14.52;6.85;;;;;;;13.79;100.00;98952.19;4986470;28;20042;-44
2023/10/01 07:37:26;;;;;;;15.73;7.45;;;;;;;14.18;100.00;99001.25;5008481;28;20048;-49
2023/10/01 07:39:59;;;;;;;12.27;6.05;;;;;;;14.26;100.00;98999.84;5006195;28;20049;-44
2023/10/01 07:42:27;;;;;;;8.85;5.30;;;;;;;14.26;99.36;99001.63;5005822;28;20096;-45
2023/10/01 07:44:56;;;;;;;9.23;5.88;;;;;;;14.12;98.10;98970.25;5007620;28;20053;-43
2023/10/01 07:47:29;;;;;;;18.30;7.30;;;;;;;14.45;97.27;99004.00;4959029;28;20085;-44
2023/10/01 07:50:01;;;;;;;10.63;6.20;;;;;;;14.66;96.70;99006.13;5007863;28;20650;-47
2023/10/01 07:52:36;;;;;;;8.40;5.50;;;;;;;14.44;95.62;98973.56;5024059;28;20497;-49
2023/10/01 07:55:29;;;;;;;7.15;4.88;;;;;;;14.51;94.66;98985.31;5009454;28;20037;-51
2023/10/01 07:57:51;;;;;;;8.93;5.38;;;;;;;14.73;93.46;99015.28;5005343;28;20037;-47
2023/10/01 08:00:29;;;;;;;8.90;4.63;;;;;;;14.90;92.37;99013.41;5004478;28;20042;-51
2023/10/01 08:05:40;;;;;;;11.43;5.55;;;;;;;15.01;90.28;98997.88;5023870;28;20056;-45
2023/10/01 08:08:08;;;;;;;12.00;5.93;;;;;;;15.09;89.65;98985.97;5006546;28;20042;-46
2023/10/01 08:10:37;;;;;;;11.23;5.85;;;;;;;15.61;88.57;99024.53;5006887;28;20052;-47
2023/10/01 08:13:06;;;;;;;10.02;5.60;;;;;;;15.84;87.69;99026.50;5008617;28;20038;-44
2023/10/01 08:15:39;;;;;;;10.02;5.60;;;;;;;15.50;85.60;99008.63;5003493;28;20054;-44
2023/10/01 08:21:02;;;;;;;12.15;4.65;;;;;;;15.77;83.91;99033.06;5013276;28;20046;-48
2023/10/01 08:23:31;;;;;;;11.32;5.15;;;;;;;16.07;82.70;99038.91;5022997;28;20644;-45
2023/10/01 08:26:03;;;;;;;8.20;3.50;;;;;;;16.30;80.27;99042.59;5005461;28;20046;-44
2023/10/01 08:28:29;;;;;;;6.60;3.70;;;;;;;16.32;76.62;99029.41;5014904;28;20103;-47
2023/10/01 08:31:01;;;;;;;5.93;3.92;;;;;;;16.50;75.49;99034.22;5007395;28;20033;-46
2023/10/01 08:33:34;;;;;;;7.95;4.18;;;;;;;16.44;73.63;99020.66;5015470;28;20457;-43
2023/10/01 08:36:12;;;;;;;15.20;3.53;;;;;;;16.49;73.91;99027.28;5013792;28;20045;-44
2023/10/01 08:38:47;;;;;;;6.43;3.38;;;;;;;16.73;73.16;99030.03;5008574;28;20038;-45
2023/10/01 08:41:47;;;;;;;8.80;4.30;;;;;;;17.01;72.13;99026.28;5012669;28;20128;-44
2023/10/01 08:44:19;;;;;;;7.47;4.22;;;;;;;17.33;71.51;99027.44;5006464;28;20041;-44
2023/10/01 08:46:45;;;;;;;9.10;3.83;;;;;;;17.43;71.19;99024.97;5023366;28;20508;-43
2023/10/01 08:49:24;;;;;;;6.45;3.95;;;;;;;17.27;70.50;99033.13;4998168;28;20054;-46
2023/10/01 08:51:55;;;;;;;15.18;5.63;;;;;;;17.26;70.20;99026.22;4989617;28;20100;-44
2023/10/01 08:54:30;;;;;;;8.40;3.60;;;;;;;17.31;69.36;99029.34;4996773;28;20073;-44
2023/10/01 08:56:57;;;;;;;7.55;4.40;;;;;;;17.03;69.42;99026.19;4990138;28;20472;-48
2023/10/01 08:59:23;;;;;;;8.95;4.38;;;;;;;16.84;69.70;98998.63;5004687;28;20048;-46
2023/10/01 09:01:52;;;;;;;8.35;3.88;;;;;;;16.82;69.70;98981.28;5023345;28;20058;-44
2023/10/01 09:04:44;;;;;;;10.65;4.55;;;;;;;17.22;69.10;99034.41;5006057;28;20041;-49
2023/10/01 09:07:20;;;;;;;6.47;4.20;;;;;;;17.56;68.28;99040.72;5004618;28;20038;-47
2023/10/01 09:10:07;;;;;;;7.97;3.95;;;;;;;18.15;66.16;99049.47;4998182;28;20434;-46
2023/10/01 09:12:45;;;;;;;6.63;3.05;;;;;;;18.05;65.00;99038.78;5008105;28;20038;-45
2023/10/01 09:15:27;;;;;;;7.30;2.65;;;;;;;18.49;63.91;99048.56;5017679;28;20054;-46
2023/10/01 09:17:57;;;;;;;8.60;2.60;;;;;;;18.25;63.26;99032.03;4978865;28;20540;-45
2023/10/01 09:20:42;;;;;;;5.50;2.10;;;;;;;18.19;62.67;99048.28;5007440;28;20180;-46
2023/10/01 09:23:08;;;;;;;6.10;2.47;;;;;;;19.48;59.48;99058.38;5017415;28;20410;-44
2023/10/01 09:25:39;;;;;;;7.43;2.22;;;;;;;19.01;58.58;99047.16;5015851;28;20053;-46
2023/10/01 09:28:29;;;;;;;6.22;2.40;;;;;;;18.88;58.75;99049.09;5011377;28;20041;-46
2023/10/01 09:31:26;;;;;;;6.40;2.72;;;;;;;20.91;56.05;99055.94;5011537;28;20060;-50
2023/10/01 09:33:49;;;;;;;4.43;2.05;;;;;;;21.73;52.45;99058.38;5008814;28;20065;-46
2023/10/01 09:36:35;;;;;;;7.32;2.90;;;;;;;22.06;51.92;99065.94;5010624;28;20147;-51
2023/10/01 09:39:03;;;;;;;6.75;2.70;;;;;;;21.58;51.85;99065.88;5026314;28;20045;-48
2023/10/01 09:41:40;;;;;;;6.45;2.50;;;;;;;20.94;51.85;99042.44;5010117;28;20046;-48
2023/10/01 09:44:07;;;;;;;5.15;2.55;;;;;;;20.94;52.83;99066.22;5011034;28;20038;-42
2023/10/01 09:46:34;;;;;;;7.82;2.63;;;;;;;21.47;51.76;99077.44;5010361;28;20604;-47
2023/10/01 09:49:02;;;;;;;6.25;2.55;;;;;;;21.16;52.24;99040.59;4996986;28;20034;-48
2023/10/01 09:51:34;;;;;;;10.07;2.67;;;;;;;21.04;52.17;99077.69;5027129;28;20080;-40
2023/10/01 09:54:03;;;;;;;6.60;2.40;;;;;;;21.49;50.83;99067.56;4994309;28;20036;-40
2023/10/01 09:56:30;;;;;;;5.50;2.60;;;;;;;21.84;49.53;99079.41;5010039;28;20069;-39
2023/10/01 09:59:01;;;;;;;5.57;1.83;;;;;;;23.19;47.18;99080.88;5015642;28;20095;-41
2023/10/01 10:01:32;;;;;;;9.15;2.75;;;;;;;25.80;43.23;99087.16;5026489;28;20046;-39
2023/10/01 10:03:59;;;;;;;4.85;2.25;;;;;;;25.00;41.45;99077.88;5010377;28;20387;-40
2023/10/01 10:06:25;;;;;;;4.53;2.10;;;;;;;24.17;43.19;99092.53;5010101;28;20037;-39
2023/10/01 10:09:37;;;;;;;9.13;2.25;;;;;;;23.44;43.91;99092.63;5009511;28;20445;-41
2023/10/01 10:11:45;;;;;;;3.75;1.88;;;;;;;24.24;42.90;99065.22;5012308;28;20912;-38
2023/10/01 10:14:26;;;;;;;10.95;2.78;;;;;;;24.14;42.88;99090.16;4992816;28;20041;-40
2023/10/01 10:17:00;;;;;;;10.23;3.42;;;;;;;26.15;39.91;99090.38;5007640;28;20041;-40
2023/10/01 10:19:30;;;;;;;6.18;2.40;;;;;;;27.83;37.31;99096.44;5009345;28;20464;-39
2023/10/01 10:24:34;;;;;;;5.55;2.47;;;;;;;28.43;35.91;99075.13;5010213;28;20406;-41
2023/10/01 10:27:08;;;;;;;6.93;2.38;;;;;;;29.25;34.50;99093.84;5010918;28;20045;-39
2023/10/01 10:29:46;;;;;;;7.05;2.05;;;;;;;26.95;36.42;99101.16;4983962;28;20042;-39
2023/10/01 10:32:13;;;;;;;5.32;2.17;;;;;;;24.68;39.42;99083.81;5021997;28;20124;-40
2023/10/01 10:35:04;;;;;;;8.43;2.50;;;;;;;23.28;41.92;99083.63;4975473;28;20211;-41
2023/10/01 10:37:38;;;;;;;8.75;2.25;;;;;;;22.67;43.42;99089.41;5009803;28;20045;-42
2023/10/01 10:43:07;;;;;;;6.80;2.25;;;;;;;23.45;42.75;99080.16;5011078;28;20176;-44
2023/10/01 10:45:42;;;;;;;;;;;;;;;25.66;39.29;99085.94;4994746;28;20073;-44
2023/10/01 10:48:10;;;;;;;6.38;2.03;;;;;;;27.27;36.80;99069.00;5022363;28;19914;-44
2023/10/01 10:51:05;;;;;;;7.00;2.53;;;;;;;28.26;35.57;99078.13;5005378;28;20046;-40
2023/10/01 10:53:37;;;;;;;5.25;2.33;;;;;;;27.65;35.42;99085.19;4988691;28;20034;-44
2023/10/01 10:56:09;;;;;;;10.52;2.25;;;;;;;26.27;37.69;99082.06;5008449;28;20045;-43
2023/10/01 10:58:43;;;;;;;6.00;2.38;;;;;;;27.54;36.15;99078.41;5011364;28;20046;-44
2023/10/01 11:01:18;;;;;;;4.57;1.98;;;;;;;27.94;35.57;99085.38;5024385;28;20043;-43
2023/10/01 11:03:50;;;;;;;5.38;1.77;;;;;;;28.63;33.82;99080.75;5022825;28;20040;-42
2023/10/01 11:06:20;;;;;;;6.35;2.60;;;;;;;27.21;34.71;99092.91;5008639;28;20048;-42
2023/10/01 11:08:54;;;;;;;6.93;2.35;;;;;;;25.44;37.43;99066.06;5024520;28;20053;-43
2023/10/01 11:11:29;;;;;;;10.05;2.33;;;;;;;25.61;37.46;99080.28;5005816;28;20054;-43
2023/10/01 11:14:01;;;;;;;3.70;1.90;;;;;;;25.05;38.46;99089.72;5022640;28;20033;-43
2023/10/01 11:16:34;;;;;;;5.40;2.47;;;;;;;24.30;39.49;99080.56;5008928;28;20057;-43
2023/10/01 11:19:12;;;;;;;4.05;2.10;;;;;;;23.68;41.01;99070.00;4992261;28;20050;-42
2023/10/01 11:21:55;;;;;;;9.75;4.88;;;;;;;23.08;42.03;99093.50;4989158;28;20121;-42
2023/10/01 11:24:48;;;;;;;4.80;1.90;;;;;;;22.25;42.79;99103.00;4996852;28;20046;-41
2023/10/01 11:27:18;;;;;;;4.32;2.05;;;;;;;21.90;43.70;99105.34;5007534;28;20053;-42
2023/10/01 11:29:58;;;;;;;6.97;1.95;;;;;;;21.99;43.45;99109.81;5025276;28;20049;-42
2023/10/01 11:35:32;;;;;;;4.07;2.00;;;;;;;22.00;43.89;99108.03;5009686;28;20132;-42
2023/10/01 11:38:00;;;;;;;8.02;1.90;;;;;;;21.83;44.42;99065.34;5008782;28;20041;-41
2023/10/01 11:41:06;;;;;;;7.73;2.20;;;;;;;21.78;44.59;99061.44;5009710;28;20045;-43
2023/10/01 11:43:23;;;;;;;5.57;2.30;;;;;;;21.99;44.57;99117.75;5008677;28;20297;-41
2023/10/01 11:46:23;;;;;;;4.60;1.80;;;;;;;21.85;44.59;99113.69;4996478;28;20079;-42
2023/10/01 11:48:57;;;;;;;5.70;1.70;;;;;;;21.24;44.47;99113.00;5016515;28;20042;-44
2023/10/01 11:51:32;;;;;;;5.53;1.77;;;;;;;21.09;45.20;99122.25;4989266;28;20038;-42
2023/10/01 11:54:08;;;;;;;7.90;2.17;;;;;;;21.07;45.36;99097.72;5008600;28;20041;-42
2023/10/01 11:56:38;;;;;;;7.68;4.50;;;;;;;21.25;45.20;99113.84;5006178;28;20084;-43
2023/10/01 11:59:08;;;;;;;4.22;1.95;;;;;;;21.27;45.02;99125.94;5004024;28;20041;-42
2023/10/01 12:01:48;;;;;;;3.60;1.85;;;;;;;20.83;44.14;99121.00;5021914;28;20045;-43
2023/10/01 12:04:24;;;;;;;6.63;1.67;;;;;;;20.51;44.41;99126.38;5006506;28;20042;-42
2023/10/01 12:06:59;;;;;;;8.23;1.83;;;;;;;20.56;44.20;99124.16;5110546;27;20398;-43
2023/10/01 12:09:26;;;;;;;3.72;1.70;;;;;;;20.76;44.07;99127.75;5108097;27;20039;-43
2023/10/01 12:12:04;;;;;;;5.53;1.80;;;;;;;20.60;44.18;99123.78;5116650;28;22246;-42
2023/10/01 12:14:32;;;;;;;7.57;2.45;;;;;;;20.68;44.21;99123.97;5094733;28;20130;-43
2023/10/01 12:17:01;;;;;;;4.78;1.98;;;;;;;20.26;44.54;99091.41;5089224;28;20730;-43
2023/10/01 12:19:29;;;;;;;6.95;1.75;;;;;;;20.32;44.59;99118.28;5067174;28;20097;-42
2023/10/01 12:22:06;;;;;;;4.20;1.90;;;;;;;20.07;44.76;99091.25;5093919;28;20418;-42
2023/10/01 12:24:45;;;;;;;5.00;1.70;;;;;;;20.15;45.32;99124.97;5104514;28;20085;-43
2023/10/01 12:27:37;;;;;;;5.95;1.90;;;;;;;20.06;45.23;99120.41;5103964;28;20083;-43
2023/10/01 12:29:57;;;;;;;3.95;1.70;;;;;;;20.11;45.54;99123.50;5092568;28;20047;-41
2023/10/01 12:32:37;;;;;;;7.40;2.17;;;;;;;20.09;45.72;99110.47;5103375;28;20035;-42
2023/10/01 12:35:18;;;;;;;7.32;1.80;;;;;;;20.24;46.15;99113.63;5105531;28;20074;-42
2023/10/01 12:37:45;;;;;;;5.93;1.80;;;;;;;20.33;46.53;99122.59;5088998;28;20036;-42